Latest Weather Observations for Mount Boyce

IDN60801

Issued at 9:33 am EST Saturday 25 June 2016 (issued every 30 minutes, with the page automatically refreshed every 10 minutes)

About weather observations | Map of weather stations | Latest weather observations for NSW | Other Formats
Station Details ID: 063292 Name: MOUNT BOYCE AWS Lat: -33.62 Lon: 150.27 Height: 1080.0 m
Data from the previous 72 hours. | See also: Recent months at Mount Boyce
Date/Time
EST
Temp
°C
App
Temp
°C
Dew
Point
°C
Rel
Hum
%
Delta-T
°C
Wind Press
QNH
hPa
Press
MSL
hPa
Rain since
9am
mm
Dir  Spd
km/h
Gust
km/h
Spd
kts
Gust
kts
25/09:00am -1.4 -7.1 -4.1 82 0.9 WSW 17 24 9 13 - - 0.8
25/08:30am -2.3 -8.4 -4.2 87 0.5 W 19 26 10 14 - - 0.8
25/08:00am -2.7 -8.9 -4.4 88 0.5 W 19 28 10 15 - - 0.8
25/07:30am -2.8 -9.2 -4.5 88 0.4 W 20 30 11 16 - - 0.8
25/07:00am -2.6 -9.3 -4.6 86 0.6 WSW 22 33 12 18 - - 0.8
25/06:30am -2.5 -9.6 -4.5 86 0.6 WSW 24 32 13 17 - - 0.8
25/06:00am -2.4 -10.3 -4.7 84 0.7 WSW 28 43 15 23 - - 0.8
25/05:30am -2.2 -11.1 -4.8 82 0.8 WSW 33 44 18 24 - - 0.8
25/05:03am -1.9 -11.1 -4.9 80 0.9 WSW 35 54 19 29 - - 0.8
25/05:00am -1.9 -11.1 -4.7 81 0.9 WSW 35 50 19 27 - - 0.8
25/04:30am -1.9 -10.7 -4.2 84 0.7 WSW 33 52 18 28 - - 0.8
25/04:00am -1.7 -11.6 -4.2 83 0.8 WSW 39 57 21 31 - - 0.8
25/03:40am -1.5 -11.4 -3.8 84 0.7 WSW 39 57 21 31 - - 0.8
25/03:30am -1.3 -12.2 -4.0 82 0.9 WSW 44 59 24 32 - - 0.8
25/03:00am -1.3 -10.8 -3.6 84 0.7 WSW 37 57 20 31 - - 0.8
25/02:53am -1.2 -11.1 -3.5 84 0.8 WSW 39 59 21 32 - - 0.8
25/02:37am -1.2 -9.8 -2.8 89 0.5 WSW 33 52 18 28 - - 0.8
25/02:30am -1.2 -9.8 -2.5 91 0.4 WSW 33 44 18 24 - - 0.8
25/02:18am -1.1 -9.5 -2.4 91 0.4 WSW 32 50 17 27 - - 0.8
25/02:00am -1.0 -8.6 -2.4 90 0.5 WSW 28 39 15 21 - - 0.8
25/01:30am -0.8 -8.8 -2.4 89 0.5 WSW 30 46 16 25 - - 0.8
25/01:29am -0.9 -8.9 -2.5 89 0.5 WSW 30 46 16 25 - - 0.8
25/01:16am -0.9 -8.6 -2.8 87 0.6 WSW 28 54 15 29 - - 0.8
25/01:00am -0.9 -8.6 -2.9 86 0.7 WSW 28 41 15 22 - - 0.8
25/12:30am -0.6 -8.6 -2.5 87 0.7 WSW 30 50 16 27 - - 0.8
25/12:00am -0.5 -8.1 -2.2 88 0.6 WSW 28 46 15 25 - - 0.8
 
Date/Time
EST
Temp
°C
App
Temp
°C
Dew
Point
°C
Rel
Hum
%
Delta-T
°C
Wind Press
QNH
hPa
Press
MSL
hPa
Rain since
9am
mm
Dir  Spd
km/h
Gust
km/h
Spd
kts
Gust
kts
24/11:59pm -0.5 -8.1 -2.2 88 0.6 WSW 28 46 15 25 - - 0.8
24/11:55pm -0.5 -8.5 -2.2 88 0.6 WSW 30 46 16 25 - - 0.8
24/11:33pm -0.5 -8.1 -2.2 88 0.6 WSW 28 46 15 25 - - 0.8
24/11:30pm -0.5 -8.9 -2.1 89 0.6 WSW 32 46 17 25 - - 0.8
24/11:00pm -0.3 -7.1 -1.6 91 0.5 WSW 24 37 13 20 - - 0.8
24/10:36pm -0.3 -7.9 -1.9 89 0.6 WSW 28 44 15 24 - - 0.8
24/10:30pm -0.3 -7.5 -1.9 89 0.6 W 26 44 14 24 - - 0.8
24/10:00pm -0.3 -8.3 -2.2 87 0.7 W 30 48 16 26 - - 0.8
24/09:55pm -0.4 -8.4 -2.3 87 0.7 WSW 30 48 16 26 - - 0.8
24/09:30pm -0.3 -8.7 -2.3 86 0.7 WSW 32 44 17 24 - - 0.8
24/09:00pm -0.4 -8.4 -2.3 87 0.7 WSW 30 57 16 31 - - 0.8
24/08:31pm -0.7 -9.6 -2.3 89 0.5 WSW 35 54 19 29 - - 0.8
24/08:30pm -0.7 -10.0 -2.3 89 0.5 WSW 37 54 20 29 - - 0.8
24/08:27pm -0.8 -10.1 -2.2 90 0.5 WSW 37 56 20 30 - - 0.8
24/08:02pm -0.8 -9.0 -1.1 98 0.1 WSW 32 57 17 31 - - 0.8
24/08:00pm -0.8 -9.0 -1.1 98 0.1 WSW 32 57 17 31 - - 0.8
24/07:30pm -0.6 -8.4 -0.9 98 0.1 WSW 30 48 16 26 - - 0.8
24/07:07pm -0.6 -8.8 -0.9 98 0.1 WSW 32 56 17 30 - - 0.8
24/07:06pm -0.6 -8.8 -0.9 98 0.1 WSW 32 48 17 26 - - 0.8
24/07:00pm -0.6 -8.8 -0.9 98 0.1 WSW 32 46 17 25 - - 0.8
24/06:54pm -0.6 -8.0 -0.9 98 0.1 W 28 46 15 25 - - 0.8
24/06:50pm -0.5 -7.9 -0.8 98 0.1 W 28 44 15 24 - - 0.8
24/06:34pm -0.6 -9.4 -0.9 98 0.1 WSW 35 61 19 33 - - 0.8
24/06:30pm -0.6 -9.4 -0.9 98 0.1 WSW 35 56 19 30 - - 0.8
24/06:24pm -0.7 -9.1 -1.0 98 0.1 WSW 33 56 18 30 - - 0.8
24/06:23pm -0.7 -9.1 -1.0 98 0.1 WSW 33 50 18 27 - - 0.8
24/06:00pm -0.6 -8.4 -0.9 98 0.1 WSW 30 48 16 26 - - 0.8
24/05:30pm -0.3 -8.6 -0.6 98 0.1 W 33 54 18 29 - - 0.8
24/05:00pm -0.4 -8.6 -0.7 98 0.1 W 32 50 17 27 - - 0.8
24/04:54pm -0.4 -8.6 -0.7 98 0.1 W 32 50 17 27 - - 0.8
24/04:30pm -0.6 -8.0 -0.9 98 0.1 W 28 37 15 20 - - 0.8
24/04:00pm 0.3 -8.3 -0.1 97 0.2 W 35 54 19 29 - - 0.8
24/03:30pm 0.3 -8.0 -0.1 97 0.2 W 33 54 18 29 - - 0.8
24/03:29pm 0.3 -8.0 -0.1 97 0.2 W 33 54 18 29 - - 0.8
24/03:07pm 0.5 -8.2 -0.4 94 0.3 W 35 59 19 32 - - 0.8
24/03:01pm 1.1 -7.0 -0.2 91 0.5 W 32 56 17 30 - - 0.6
24/03:00pm 1.2 -6.9 -0.3 90 0.6 W 32 56 17 30 - - 0.6
24/02:36pm 2.5 -5.6 -0.4 81 1.1 W 32 50 17 27 - - 0.6
24/02:30pm 2.5 -5.6 -0.1 83 1.0 W 32 48 17 26 - - 0.6
24/02:00pm 2.4 -5.7 -0.2 83 1.0 W 32 50 17 27 - - 0.6
24/01:53pm 2.3 -5.8 0.0 85 0.9 W 32 54 17 29 - - 0.6
24/01:38pm 2.1 -7.7 -0.5 83 1.0 W 41 70 22 38 - - 0.6
24/01:30pm 3.4 -4.9 -0.4 76 1.5 W 33 63 18 34 - - 0.6
24/01:00pm 4.3 -3.8 1.2 80 1.3 W 33 65 18 35 - - 0.6
24/12:30pm 2.7 -5.9 0.4 85 0.9 W 35 69 19 37 - - 0.6
24/12:00pm 3.4 -6.7 0.1 79 1.3 W 43 74 23 40 - - 0.6
24/11:58am 3.4 -6.3 0.5 81 1.2 W 41 74 22 40 - - 0.6
24/11:30am 3.5 -4.6 1.1 84 1.0 W 33 52 18 28 - - 0.6
24/11:28am 3.4 -4.7 1.3 86 0.9 W 33 52 18 28 - - 0.6
24/11:26am 3.5 -4.9 1.4 86 0.9 W 35 52 19 28 - - 0.6
24/11:09am 3.2 -5.0 2.6 96 0.3 W 35 72 19 39 - - 0.6
24/11:00am 3.1 -4.7 2.8 98 0.1 W 33 52 18 28 - - 0.6
24/10:30am 2.8 -5.1 2.5 98 0.1 W 33 56 18 30 - - 0.6
24/10:23am 2.6 -5.3 2.3 98 0.1 W 33 56 18 30 - - 0.6
24/10:17am 2.8 -5.1 2.5 98 0.1 W 33 44 18 24 - - 0.4
24/10:00am 2.8 -4.1 2.4 97 0.2 W 28 41 15 22 - - 0.4
24/09:39am 2.8 -3.7 2.4 97 0.2 W 26 43 14 23 - - 0.2
24/09:30am 2.7 -5.2 2.3 97 0.2 W 33 52 18 28 - - 0.2
24/09:23am 3.0 -4.3 2.6 97 0.2 W 30 48 16 26 - - 0.2
24/09:16am 3.1 -4.2 2.7 97 0.2 W 30 44 16 24 - - 0.2
24/09:04am 3.2 -4.4 2.6 96 0.3 W 32 50 17 27 - - 0.0
24/09:00am 3.2 -4.6 2.6 96 0.3 W 33 50 18 27 - - 0.6
24/08:50am 3.3 -4.9 2.6 95 0.3 W 35 65 19 35 - - 0.6
24/08:34am 3.9 -4.6 3.0 94 0.4 W 37 59 20 32 - - 0.4
24/08:30am 4.3 -3.8 3.4 94 0.4 W 35 56 19 30 - - 0.2
24/08:00am 4.5 -3.6 3.3 92 0.5 WNW 35 59 19 32 - - 0.2
24/07:33am 5.1 -2.1 3.0 86 0.9 W 30 48 16 26 - - 0.0
24/07:30am 5.2 -1.6 2.9 85 1.0 WNW 28 48 15 26 - - 0.0
24/07:06am 5.1 -2.1 2.8 85 1.0 W 30 50 16 27 - - 0.0
24/07:00am 5.0 -2.3 2.7 85 1.0 W 30 44 16 24 - - 0.0
24/06:30am 5.1 -2.9 1.8 79 1.4 W 33 54 18 29 - - 0.0
24/06:00am 5.0 -3.0 1.5 78 1.5 W 33 57 18 31 - - 0.0
24/05:30am 5.5 -3.7 1.4 75 1.7 W 39 61 21 33 - - 0.0
24/05:03am 5.3 -2.6 2.0 79 1.4 W 33 59 18 32 - - 0.0
24/05:00am 5.3 -2.6 2.3 81 1.3 W 33 50 18 27 - - 0.0
24/04:30am 5.6 -2.6 2.8 82 1.2 W 35 63 19 34 - - 0.0
24/04:28am 5.5 -2.7 2.7 82 1.2 W 35 50 19 27 - - 0.0
24/04:00am 6.0 -2.1 3.5 84 1.1 W 35 56 19 30 - - 0.0
24/03:55am 6.2 -2.2 3.5 83 1.2 W 37 56 20 30 - - 0.0
24/03:30am 6.4 -2.0 3.7 83 1.2 W 37 61 20 33 - - 0.0
24/03:04am 6.5 -2.6 4.0 84 1.1 W 41 63 22 34 - - 0.0
24/03:00am 6.6 -2.5 4.1 84 1.1 W 41 59 22 32 - - 0.0
24/02:54am 6.6 -2.1 4.1 84 1.1 W 39 59 21 32 - - 0.0
24/02:30am 6.3 -2.1 3.8 84 1.1 W 37 57 20 31 - - 0.0
24/02:10am 6.7 -3.1 3.3 79 1.5 W 44 80 24 43 - - 0.0
24/02:00am 6.5 -2.7 3.5 81 1.4 W 41 61 22 33 - - 0.0
24/01:35am 6.4 -2.0 3.9 84 1.1 W 37 65 20 35 - - 0.0
24/01:32am 6.4 -1.6 3.9 84 1.1 W 35 48 19 26 - - 0.0
24/01:30am 6.4 -1.6 3.9 84 1.1 W 35 56 19 30 - - 0.0
24/01:00am 6.3 -2.7 4.3 87 0.9 W 41 59 22 32 - - 0.0
24/12:30am 6.2 -2.4 4.5 89 0.8 W 39 61 21 33 - - 0.0
24/12:05am 6.2 -1.9 5.2 93 0.5 W 37 56 20 30 - - 0.0
24/12:00am 6.2 -1.9 5.2 93 0.5 W 37 50 20 27 - - 0.0
 
Date/Time
EST
Temp
°C
App
Temp
°C
Dew
Point
°C
Rel
Hum
%
Delta-T
°C
Wind Press
QNH
hPa
Press
MSL
hPa
Rain since
9am
mm
Dir  Spd
km/h
Gust
km/h
Spd
kts
Gust
kts
23/11:36pm 6.2 -1.4 5.6 96 0.3 W 35 54 19 29 - - 0.0
23/11:35pm 6.2 -1.4 5.8 97 0.2 W 35 52 19 28 - - 0.0
23/11:30pm 6.2 -1.4 5.8 97 0.2 W 35 52 19 28 - - 0.0
23/11:07pm 6.6 -0.6 5.7 94 0.4 W 33 52 18 28 - - 0.0
23/11:00pm 6.8 -1.2 5.6 92 0.6 W 37 56 20 30 - - 0.0
23/10:30pm 7.1 -0.4 6.2 94 0.4 W 35 57 19 31 - - 0.0
23/10:06pm 7.2 1.0 6.1 93 0.5 WNW 28 56 15 30 - - 0.0
23/10:01pm 7.2 1.0 6.1 93 0.5 WNW 28 56 15 30 - - 0.0
23/10:00pm 7.2 1.0 6.1 93 0.5 WNW 28 44 15 24 - - 0.0
23/09:52pm 7.2 1.3 6.0 92 0.6 WNW 26 44 14 24 - - 0.0
23/09:31pm 7.5 1.2 5.6 88 0.9 WNW 28 46 15 25 - - 0.0
23/09:30pm 7.4 1.4 5.5 88 0.9 WNW 26 41 14 22 - - 0.0
23/09:00pm 7.3 1.7 5.4 88 0.9 WNW 24 41 13 22 - - 0.0
23/08:42pm 7.3 0.9 5.4 88 0.9 NW 28 50 15 27 - - 0.0
23/08:30pm 7.3 2.5 5.4 88 0.9 WNW 20 44 11 24 - - 0.0
23/08:00pm 7.1 1.8 5.1 87 0.9 WNW 22 46 12 25 - - 0.0
23/07:30pm 6.9 1.6 5.2 89 0.8 NW 22 50 12 27 - - 0.0
23/07:00pm 6.7 1.4 5.0 89 0.8 WNW 22 33 12 18 - - 0.0
23/06:30pm 6.5 0.4 4.7 88 0.8 WNW 26 48 14 26 - - 0.0
23/06:00pm 6.6 1.5 4.1 84 1.1 WNW 20 43 11 23 - - 0.0
23/05:58pm 6.5 1.4 4.0 84 1.1 WNW 20 43 11 23 - - 0.0
23/05:30pm 6.5 1.5 3.5 81 1.4 W 19 28 10 15 - - 0.0
23/05:00pm 6.5 0.8 3.1 79 1.5 W 22 37 12 20 - - 0.0
23/04:32pm 6.6 -0.3 2.5 75 1.8 W 28 50 15 27 - - 0.0
23/04:30pm 6.5 0.0 2.4 75 1.8 W 26 39 14 21 - - 0.0
23/04:00pm 7.9 1.9 3.2 72 2.1 W 24 35 13 19 - - 0.0
23/03:30pm 8.1 1.4 3.4 72 2.1 W 28 41 15 22 - - 0.0
23/03:00pm 7.4 0.2 2.9 73 2.0 W 30 43 16 23 - - 0.0
23/02:30pm 7.4 0.6 2.9 73 2.0 W 28 46 15 25 - - 0.0
23/02:01pm 7.3 -0.6 2.0 69 2.3 W 33 52 18 28 - - 0.0
23/02:00pm 7.4 -0.9 2.1 69 2.3 W 35 52 19 28 - - 0.0
23/01:49pm 8.1 0.5 2.6 68 2.5 W 32 54 17 29 - - 0.0
23/01:30pm 7.2 0.3 2.5 72 2.1 W 28 39 15 21 - - 0.0
23/01:01pm 7.6 -0.3 2.3 69 2.4 W 33 52 18 28 - - 0.0
23/01:00pm 7.9 -0.3 2.8 70 2.3 W 35 52 19 28 - - 0.0
23/12:30pm 6.7 -1.2 2.0 72 2.1 WSW 33 52 18 28 - - 0.0
23/12:00pm 6.2 -2.2 1.7 73 1.9 W 35 61 19 33 - - 0.0
23/11:30am 5.7 -2.2 1.2 73 1.9 WSW 32 52 17 28 - - 0.0
23/11:00am 5.5 -3.3 1.2 74 1.8 WSW 37 57 20 31 - - 0.0
23/10:30am 5.2 -3.5 1.7 78 1.5 W 37 56 20 30 - - 0.0
23/10:13am 5.0 -3.4 1.7 79 1.4 W 35 54 19 29 - - 0.0
23/10:00am 4.9 -3.5 1.6 79 1.4 W 35 50 19 27 - - 0.0
23/09:30am 4.4 -3.0 1.8 83 1.1 WSW 30 41 16 22 - - 0.0
23/09:00am 3.8 -2.9 1.5 85 1.0 WSW 26 39 14 21 - - 0.0
23/08:30am 3.5 -3.6 1.2 85 1.0 WSW 28 37 15 20 - - 0.0
23/08:00am 3.3 -3.9 1.0 85 0.9 WSW 28 37 15 20 - - 0.0
23/07:30am 3.0 -3.7 1.2 88 0.7 WSW 26 35 14 19 - - 0.0
23/07:00am 3.2 -4.3 0.9 85 0.9 W 30 39 16 21 - - 0.0
23/06:30am 3.4 -4.4 1.4 87 0.8 W 32 39 17 21 - - 0.0
23/06:29am 3.4 -4.1 1.4 87 0.8 W 30 39 16 21 - - 0.0
23/06:00am 3.4 -3.7 1.4 87 0.8 WSW 28 35 15 19 - - 0.0
23/05:39am 3.6 -3.9 1.3 85 1.0 WSW 30 41 16 22 - - 0.0
23/05:30am 3.6 -4.2 1.5 86 0.9 W 32 41 17 22 - - 0.0
23/05:00am 3.3 -2.3 1.2 86 0.9 W 20 30 11 16 - - 0.0
23/04:30am 3.4 -2.9 1.3 86 0.9 W 24 32 13 17 - - 0.0
23/04:00am 3.5 -3.6 1.2 85 1.0 W 28 37 15 20 - - 0.0
23/03:30am 3.7 -3.1 1.1 83 1.1 W 26 37 14 20 - - 0.0
23/03:00am 3.8 -2.6 1.2 83 1.1 WSW 24 35 13 19 - - 0.0
23/02:30am 4.1 -3.0 1.5 83 1.1 W 28 41 15 22 - - 0.0
23/02:00am 4.2 -2.9 1.4 82 1.2 W 28 39 15 21 - - 0.0
23/01:30am 4.4 -2.2 1.8 83 1.1 W 26 37 14 20 - - 0.0
23/01:00am 4.4 -1.5 1.4 81 1.3 W 22 33 12 18 - - 0.0
23/12:30am 4.3 -2.0 1.3 81 1.3 WSW 24 35 13 19 - - 0.0
23/12:02am 4.5 -2.7 0.5 75 1.6 WSW 28 48 15 26 - - 0.0
23/12:00am 4.4 -2.0 0.7 77 1.5 WSW 24 46 13 25 - - 0.0
 
Date/Time
EST
Temp
°C
App
Temp
°C
Dew
Point
°C
Rel
Hum
%
Delta-T
°C
Wind Press
QNH
hPa
Press
MSL
hPa
Rain since
9am
mm
Dir  Spd
km/h
Gust
km/h
Spd
kts
Gust
kts
22/11:30pm 4.4 -2.4 1.1 79 1.4 WSW 26 39 14 21 - - 0.0
22/11:00pm 4.6 -3.5 0.7 76 1.6 WSW 33 57 18 31 - - 0.0
22/10:37pm 4.5 -2.6 1.2 79 1.4 WSW 28 50 15 27 - - 0.0
22/10:30pm 4.6 -2.9 1.3 79 1.4 WSW 30 46 16 25 - - 0.0
22/10:08pm 4.5 -2.7 1.0 78 1.5 WSW 28 46 15 25 - - 0.0
22/10:00pm 4.5 -2.7 1.0 78 1.5 WSW 28 44 15 24 - - 0.0
22/09:30pm 4.5 -3.5 0.6 76 1.6 WSW 32 50 17 27 - - 0.0
22/09:06pm 4.5 -3.1 0.6 76 1.6 WSW 30 48 16 26 - - 0.0
22/09:00pm 4.4 -2.8 0.7 77 1.5 WSW 28 41 15 22 - - 0.0
22/08:33pm 4.5 -3.5 0.6 76 1.6 WSW 32 56 17 30 - - 0.0
22/08:30pm 4.3 -3.3 0.6 77 1.5 WSW 30 43 16 23 - - 0.0
22/08:11pm 4.4 -3.6 0.7 77 1.5 WSW 32 50 17 27 - - 0.0
22/08:00pm 4.4 -3.1 0.9 78 1.5 WSW 30 43 16 23 - - 0.0
22/07:30pm 4.5 -2.9 1.7 82 1.2 W 30 48 16 26 - - 0.0
22/07:00pm 4.4 -3.4 1.9 84 1.1 WSW 32 54 17 29 - - 0.0
22/06:30pm 4.6 -3.4 1.5 80 1.3 WSW 33 52 18 28 - - 0.0
22/06:00pm 5.0 -5.2 0.9 75 1.7 WSW 44 65 24 35 - - 0.0
22/05:36pm 5.2 -2.7 1.3 76 1.7 WSW 32 57 17 31 - - 0.0
22/05:30pm 5.2 -2.7 1.3 76 1.7 WSW 32 43 17 23 - - 0.0
22/05:00pm 5.5 -1.6 1.1 73 1.9 WSW 28 44 15 24 - - 0.0
22/04:30pm 6.3 -2.2 0.8 68 2.3 W 35 56 19 30 - - 0.0
22/04:00pm 7.1 -0.5 2.6 73 2.0 W 32 56 17 30 - - 0.0
22/03:30pm 6.8 -1.4 2.9 76 1.7 W 35 61 19 33 - - 0.0
22/03:00pm 7.6 -1.2 3.8 77 1.7 W 39 69 21 37 - - 0.0
22/02:30pm 7.6 -0.4 3.8 77 1.7 W 35 56 19 30 - - 0.0
22/02:00pm 7.8 -0.7 3.3 73 2.0 W 37 59 20 32 - - 0.0
22/01:30pm 7.4 -2.5 2.7 72 2.1 WSW 44 72 24 39 - - 0.0
22/01:00pm 7.0 -3.2 3.1 76 1.8 W 46 65 25 35 - - 0.0
22/12:30pm 7.6 -2.1 3.1 73 2.0 W 43 65 23 35 - - 0.0
22/12:00pm 7.3 -2.5 3.4 76 1.8 W 44 69 24 37 - - 0.0
22/11:30am 7.0 -2.5 3.8 80 1.5 W 43 69 23 37 - - 0.0
22/11:00am 6.4 -3.3 3.0 79 1.5 W 43 63 23 34 - - 0.0
22/10:30am 6.4 -2.5 3.0 79 1.5 W 39 61 21 33 - - 0.0
22/10:13am 6.4 -2.9 3.0 79 1.5 W 41 63 22 34 - - 0.0
22/10:00am 6.3 -2.5 3.6 83 1.2 W 39 57 21 31 - - 0.0

Other Formats:

Comma delimited format used in spreadsheet applications
http://www.bom.gov.au/fwo/IDN60801/IDN60801.94743.axf

JavaScript Object Notation format (JSON) in row-major order
http://www.bom.gov.au/fwo/IDN60801/IDN60801.94743.json